Uccle, Belgium
Current Conditions -  °F | °C
As of 4:20 PM on Wednesday 26 Nov 2014 (Local Time) from EBBR Reporting Station
Light Rain Light Rain  
Wind Chill: 42°   Ceiling: 1200
Heat Index: 45°   Visibility: 2mi
Dew Point: 43°   Wind: 5mph
Humidity: 93%   Direction: 110°ESE
Pressure: 29.85"   Gusts: NA
Location:  50.79°N, 4.36°E
Report Text: EBBR 261520Z 11004KT 3200 -RADZ BR BKN012 07/06 Q1011 NOSIG
Loading
Personal Weather Stations






























Interactive Weather Map New forecast layout! Learn more

10-Day Weather Forecast

Advertisements
Track Severe Weather on mobile